createdAt,value
2018-09-14T00:00:46.364Z,0
2018-09-14T00:01:55.010Z,0
2018-09-14T00:03:03.643Z,0
2018-09-14T00:04:12.554Z,0
2018-09-14T00:05:21.192Z,0
2018-09-14T00:06:29.837Z,0
2018-09-14T00:07:38.475Z,0
2018-09-14T00:08:47.378Z,0
2018-09-14T00:09:56.278Z,0
2018-09-14T00:11:04.915Z,0
2018-09-14T00:12:13.569Z,0
2018-09-14T00:13:22.203Z,0
2018-09-14T00:14:30.848Z,0
2018-09-14T00:15:39.478Z,0
2018-09-14T00:16:48.392Z,0
2018-09-14T00:17:57.029Z,0
2018-09-14T00:19:05.676Z,0
2018-09-14T00:20:14.572Z,0
2018-09-14T00:21:23.228Z,0
2018-09-14T00:22:31.871Z,0
2018-09-14T00:23:40.514Z,0
2018-09-14T00:24:49.145Z,0
2018-09-14T00:25:58.053Z,0
2018-09-14T00:27:06.703Z,0
2018-09-14T00:28:15.347Z,0
2018-09-14T00:29:24.251Z,0
2018-09-14T00:30:32.882Z,0
2018-09-14T00:31:41.527Z,0
2018-09-14T00:32:50.167Z,0
2018-09-14T00:33:59.080Z,0
2018-09-14T00:35:07.715Z,0
2018-09-14T00:36:16.380Z,0
2018-09-14T00:37:25.275Z,0
2018-09-14T00:38:33.923Z,0
2018-09-14T00:39:42.560Z,0
2018-09-14T00:40:51.201Z,0
2018-09-14T00:41:59.840Z,0
2018-09-14T00:43:08.489Z,0
2018-09-14T00:44:17.130Z,0
2018-09-14T00:45:25.768Z,0
2018-09-14T00:46:34.669Z,0
2018-09-14T00:47:43.573Z,0
2018-09-14T00:48:52.221Z,0
2018-09-14T00:50:00.859Z,0
2018-09-14T00:51:09.503Z,0
2018-09-14T00:52:18.136Z,0
2018-09-14T00:53:26.792Z,0
2018-09-14T00:54:35.424Z,0
2018-09-14T00:55:44.068Z,0
2018-09-14T00:56:52.700Z,0
2018-09-14T00:58:01.351Z,0
2018-09-14T00:59:09.987Z,0
2018-09-14T01:00:18.629Z,0
2018-09-14T01:01:27.526Z,0
2018-09-14T01:02:36.168Z,0
2018-09-14T01:03:44.813Z,0
2018-09-14T01:04:53.713Z,0
2018-09-14T01:06:02.357Z,0
2018-09-14T01:07:10.999Z,0
2018-09-14T01:08:19.639Z,0
2018-09-14T01:09:28.278Z,0
2018-09-14T01:10:37.189Z,0
2018-09-14T01:11:45.828Z,0
2018-09-14T01:12:54.468Z,0
2018-09-14T01:14:03.110Z,0
2018-09-14T01:15:12.013Z,0
2018-09-14T01:16:20.928Z,0
2018-09-14T01:17:29.567Z,0
2018-09-14T01:18:38.210Z,0
2018-09-14T01:19:46.851Z,0
2018-09-14T01:20:55.760Z,0
2018-09-14T01:22:04.672Z,0
2018-09-14T01:23:13.569Z,0
2018-09-14T01:24:22.209Z,0
2018-09-14T01:25:30.859Z,0
2018-09-14T01:26:39.498Z,0
2018-09-14T01:27:48.140Z,0
2018-09-14T01:28:56.777Z,0
2018-09-14T01:30:05.688Z,0
2018-09-14T01:31:14.587Z,0
2018-09-14T01:32:23.229Z,0
2018-09-14T01:33:31.866Z,0
2018-09-14T01:34:40.511Z,0
2018-09-14T01:35:49.408Z,0
2018-09-14T01:36:58.052Z,0
2018-09-14T01:38:06.695Z,0
2018-09-14T01:39:15.337Z,0
2018-09-14T01:40:23.975Z,0
2018-09-14T01:41:32.621Z,0
2018-09-14T01:42:41.258Z,0
2018-09-14T01:43:49.895Z,0
2018-09-14T01:44:58.808Z,0
2018-09-14T01:46:07.449Z,0
2018-09-14T01:47:16.096Z,0
2018-09-14T01:48:24.999Z,0
2018-09-14T01:49:33.635Z,0
2018-09-14T01:50:42.539Z,0
2018-09-14T01:51:51.188Z,0
2018-09-14T01:53:00.091Z,0
2018-09-14T01:54:08.998Z,0
2018-09-14T01:55:17.637Z,0
2018-09-14T01:56:26.286Z,0
2018-09-14T01:57:35.457Z,0
2018-09-14T01:58:44.100Z,0
2018-09-14T01:59:52.730Z,0
2018-09-14T02:01:01.371Z,0
2018-09-14T02:02:10.020Z,0
2018-09-14T02:03:18.753Z,0
2018-09-14T02:04:27.301Z,0
2018-09-14T02:05:36.202Z,0
2018-09-14T02:06:44.855Z,0
2018-09-14T02:07:53.488Z,0
2018-09-14T02:09:02.132Z,0
2018-09-14T02:10:10.769Z,0
2018-09-14T02:11:19.420Z,0
2018-09-14T02:12:28.057Z,0
2018-09-14T02:13:36.700Z,0
2018-09-14T02:14:45.330Z,0
2018-09-14T02:15:53.975Z,0
2018-09-14T02:17:02.619Z,0
2018-09-14T02:18:11.261Z,0
2018-09-14T02:19:19.904Z,0
2018-09-14T02:20:28.537Z,0
2018-09-14T02:21:37.177Z,0
2018-09-14T02:22:45.815Z,0
2018-09-14T02:23:54.459Z,0
2018-09-14T02:25:03.092Z,0
2018-09-14T02:26:11.737Z,0
2018-09-14T02:27:20.373Z,0
2018-09-14T02:28:29.023Z,0
2018-09-14T02:29:38.189Z,0
2018-09-14T02:30:46.826Z,0
2018-09-14T02:31:55.754Z,0
2018-09-14T02:33:04.410Z,0
2018-09-14T02:34:13.048Z,0
2018-09-14T02:35:21.950Z,0
2018-09-14T02:36:30.857Z,0
2018-09-14T02:37:39.496Z,0
2018-09-14T02:38:48.147Z,0
2018-09-14T02:39:56.785Z,0
2018-09-14T02:41:05.430Z,0
2018-09-14T02:42:14.062Z,0
2018-09-14T02:43:22.711Z,0
2018-09-14T02:44:31.346Z,0
2018-09-14T02:45:39.992Z,0
2018-09-14T02:46:48.891Z,0
2018-09-14T02:47:57.821Z,0
2018-09-14T02:49:06.468Z,0
2018-09-14T02:50:15.116Z,0
2018-09-14T02:51:24.028Z,0
2018-09-14T02:52:32.671Z,0
2018-09-14T02:53:41.588Z,0
2018-09-14T02:54:50.229Z,0
2018-09-14T02:55:58.873Z,0
2018-09-14T02:57:07.510Z,0
2018-09-14T02:58:16.418Z,0
2018-09-14T02:59:25.062Z,0
2018-09-14T03:00:33.964Z,0
2018-09-14T03:01:42.874Z,0
2018-09-14T03:02:51.511Z,0
2018-09-14T03:04:00.158Z,0
2018-09-14T03:05:08.790Z,0
2018-09-14T03:06:17.446Z,0
2018-09-14T03:07:26.605Z,0
2018-09-14T03:08:35.247Z,0
2018-09-14T03:09:43.882Z,0
2018-09-14T03:10:52.803Z,0
2018-09-14T03:12:01.453Z,0
2018-09-14T03:13:10.100Z,0
2018-09-14T03:14:18.747Z,0
2018-09-14T03:15:27.378Z,0
2018-09-14T03:16:36.023Z,0
2018-09-14T03:17:44.937Z,0
2018-09-14T03:18:53.848Z,0
2018-09-14T03:20:02.476Z,0
2018-09-14T03:21:11.120Z,0
2018-09-14T03:22:19.768Z,0
2018-09-14T03:23:28.405Z,0
2018-09-14T03:24:37.040Z,0
2018-09-14T03:25:45.942Z,0
2018-09-14T03:26:54.582Z,0
2018-09-14T03:28:03.231Z,0
2018-09-14T03:29:12.141Z,0
2018-09-14T03:30:20.783Z,0
2018-09-14T03:31:29.685Z,0
2018-09-14T03:32:38.327Z,0
2018-09-14T03:33:46.972Z,0
2018-09-14T03:34:55.880Z,0
2018-09-14T03:36:04.532Z,0
2018-09-14T03:37:13.165Z,0
2018-09-14T03:38:21.813Z,0
2018-09-14T03:39:30.816Z,0
2018-09-14T03:40:39.461Z,0
2018-09-14T03:41:48.368Z,0
2018-09-14T03:42:57.018Z,0
2018-09-14T03:44:05.654Z,0
2018-09-14T03:45:14.573Z,0
2018-09-14T03:46:23.203Z,0
2018-09-14T03:47:32.122Z,0
2018-09-14T03:48:41.036Z,0
2018-09-14T03:49:49.678Z,0
2018-09-14T03:50:58.328Z,0
2018-09-14T03:52:06.965Z,0
2018-09-14T03:53:15.606Z,0
2018-09-14T03:54:24.246Z,0
2018-09-14T03:55:32.892Z,0
2018-09-14T03:56:41.526Z,0
2018-09-14T03:57:50.165Z,0
2018-09-14T03:58:58.804Z,0
2018-09-14T04:00:07.719Z,0
2018-09-14T04:01:16.355Z,0
2018-09-14T04:02:24.997Z,0
2018-09-14T04:03:33.640Z,0
2018-09-14T04:04:42.280Z,0
2018-09-14T04:05:50.917Z,0
2018-09-14T04:06:59.819Z,0
2018-09-14T04:08:08.730Z,0
2018-09-14T04:09:17.371Z,0
2018-09-14T04:10:26.275Z,0
2018-09-14T04:11:34.916Z,0
2018-09-14T04:12:43.819Z,0
2018-09-14T04:13:52.459Z,0
2018-09-14T04:15:01.379Z,0
2018-09-14T04:16:10.017Z,0
2018-09-14T04:17:18.856Z,0
2018-09-14T04:18:27.496Z,0
2018-09-14T04:19:36.145Z,0
2018-09-14T04:20:45.043Z,0
2018-09-14T04:21:53.684Z,0
2018-09-14T04:23:02.577Z,0
2018-09-14T04:24:11.489Z,0
2018-09-14T04:25:20.131Z,0
2018-09-14T04:26:28.772Z,0
2018-09-14T04:27:37.415Z,0
2018-09-14T04:28:46.049Z,0
2018-09-14T04:29:54.689Z,0
2018-09-14T04:31:03.329Z,0
2018-09-14T04:32:12.250Z,0
2018-09-14T04:33:21.149Z,0
2018-09-14T04:34:29.791Z,0
2018-09-14T04:35:38.429Z,0
2018-09-14T04:36:47.345Z,0
2018-09-14T04:37:56.041Z,0
2018-09-14T04:39:04.624Z,0
2018-09-14T04:40:13.274Z,0
2018-09-14T04:41:21.909Z,0
2018-09-14T04:42:30.547Z,0
2018-09-14T04:43:39.188Z,0
2018-09-14T04:44:47.831Z,0
2018-09-14T04:45:56.465Z,0
2018-09-14T04:47:05.112Z,0
2018-09-14T04:48:13.765Z,0
2018-09-14T04:49:22.659Z,0
2018-09-14T04:50:31.293Z,0
2018-09-14T04:51:39.938Z,0
2018-09-14T04:52:48.577Z,0
2018-09-14T04:53:57.217Z,0
2018-09-14T04:55:05.854Z,0
2018-09-14T04:56:14.762Z,0
2018-09-14T04:57:24.095Z,0
2018-09-14T04:58:32.937Z,0
2018-09-14T04:59:41.572Z,5
2018-09-14T05:00:50.215Z,5
2018-09-14T05:01:59.125Z,5
2018-09-14T05:03:07.775Z,5
2018-09-14T05:04:16.676Z,5
2018-09-14T05:05:25.309Z,5
2018-09-14T05:06:34.209Z,5
2018-09-14T05:07:42.917Z,5
2018-09-14T05:08:51.495Z,10
2018-09-14T05:10:00.132Z,10
2018-09-14T05:11:08.771Z,10
2018-09-14T05:12:17.414Z,10
2018-09-14T05:13:26.060Z,10
2018-09-14T05:14:34.693Z,10
2018-09-14T05:15:43.335Z,15
2018-09-14T05:16:51.973Z,15
2018-09-14T05:18:00.617Z,15
2018-09-14T05:19:09.256Z,15
2018-09-14T05:20:17.898Z,15
2018-09-14T05:21:26.804Z,20
2018-09-14T05:22:35.447Z,20
2018-09-14T05:23:44.096Z,20
2018-09-14T05:24:52.755Z,20
2018-09-14T05:26:01.375Z,20
2018-09-14T05:27:10.009Z,25
2018-09-14T05:28:18.649Z,25
2018-09-14T05:29:27.290Z,25
2018-09-14T05:30:35.937Z,30
2018-09-14T05:31:44.833Z,30
2018-09-14T05:32:53.477Z,30
2018-09-14T05:34:02.113Z,35
2018-09-14T05:35:10.754Z,35
2018-09-14T05:36:19.388Z,35
2018-09-14T05:37:28.303Z,35
2018-09-14T05:38:36.943Z,40
2018-09-14T05:39:45.586Z,40
2018-09-14T05:40:54.231Z,40
2018-09-14T05:42:02.866Z,40
2018-09-14T05:43:11.506Z,40
2018-09-14T05:44:20.145Z,40
2018-09-14T05:45:28.784Z,45
2018-09-14T05:46:37.420Z,45
2018-09-14T05:47:46.161Z,45
2018-09-14T05:48:54.704Z,45
2018-09-14T05:50:03.347Z,50
2018-09-14T05:51:12.284Z,50
2018-09-14T05:52:20.927Z,50
2018-09-14T05:53:29.567Z,55
2018-09-14T05:54:38.569Z,55
2018-09-14T05:55:47.214Z,55
2018-09-14T05:56:55.847Z,60
2018-09-14T05:58:04.483Z,60
2018-09-14T05:59:13.128Z,60
2018-09-14T06:00:22.045Z,60
2018-09-14T06:01:30.686Z,60
2018-09-14T06:02:39.327Z,65
2018-09-14T06:03:47.959Z,65
2018-09-14T06:04:56.607Z,65
2018-09-14T06:06:05.247Z,70
2018-09-14T06:07:13.891Z,70
2018-09-14T06:08:22.522Z,70
2018-09-14T06:09:31.173Z,70
2018-09-14T06:10:39.813Z,70
2018-09-14T06:11:48.458Z,70
2018-09-14T06:12:57.085Z,75
2018-09-14T06:14:05.730Z,75
2018-09-14T06:15:14.376Z,75
2018-09-14T06:16:23.019Z,75
2018-09-14T06:17:31.661Z,75
2018-09-14T06:18:40.301Z,80
2018-09-14T06:19:49.208Z,80
2018-09-14T06:20:57.841Z,80
2018-09-14T06:22:07.085Z,80
2018-09-14T06:23:15.717Z,85
2018-09-14T06:24:24.370Z,85
2018-09-14T06:25:33.004Z,85
2018-09-14T06:26:41.651Z,85
2018-09-14T06:27:50.283Z,90
2018-09-14T06:28:58.924Z,90
2018-09-14T06:30:07.564Z,90
2018-09-14T06:31:16.212Z,90
2018-09-14T06:32:25.111Z,90
2018-09-14T06:33:33.754Z,95
2018-09-14T06:34:42.385Z,95
2018-09-14T06:35:51.022Z,95
2018-09-14T06:36:59.673Z,95
2018-09-14T06:38:08.364Z,95
2018-09-14T06:39:16.960Z,100
2018-09-14T06:40:25.592Z,100
2018-09-14T06:41:34.240Z,100
2018-09-14T06:42:42.876Z,100
2018-09-14T06:43:51.530Z,100
2018-09-14T06:45:00.533Z,100
2018-09-14T06:46:09.440Z,100
2018-09-14T06:47:18.083Z,100
2018-09-14T06:48:26.732Z,100
2018-09-14T06:49:35.368Z,100
2018-09-14T06:50:44.269Z,100
2018-09-14T06:51:52.995Z,100
2018-09-14T06:53:01.729Z,100
2018-09-14T06:54:10.756Z,105
2018-09-14T06:55:19.407Z,105
2018-09-14T06:56:28.364Z,105
2018-09-14T06:57:37.010Z,105
2018-09-14T06:58:45.638Z,105
2018-09-14T06:59:54.295Z,105
2018-09-14T07:01:03.193Z,105
2018-09-14T07:02:11.840Z,105
2018-09-14T07:03:20.740Z,105
2018-09-14T07:04:29.652Z,110
2018-09-14T07:05:38.554Z,115
2018-09-14T07:06:47.196Z,110
2018-09-14T07:07:55.829Z,110
2018-09-14T07:09:04.473Z,110
2018-09-14T07:10:13.118Z,110
2018-09-14T07:11:22.084Z,110
2018-09-14T07:12:30.673Z,110
2018-09-14T07:13:39.305Z,115
2018-09-14T07:14:47.951Z,120
2018-09-14T07:15:56.853Z,115
2018-09-14T07:17:05.505Z,115
2018-09-14T07:18:14.400Z,115
2018-09-14T07:19:23.048Z,115
2018-09-14T07:20:31.942Z,115
2018-09-14T07:21:40.917Z,115
2018-09-14T07:22:49.493Z,120
2018-09-14T07:23:58.139Z,120
2018-09-14T07:25:07.047Z,120
2018-09-14T07:26:15.705Z,120
2018-09-14T07:27:24.339Z,120
2018-09-14T07:28:33.020Z,120
2018-09-14T07:29:42.029Z,120
2018-09-14T07:30:50.684Z,120
2018-09-14T07:31:59.604Z,125
2018-09-14T07:33:08.243Z,120
2018-09-14T07:34:16.893Z,120
2018-09-14T07:35:25.524Z,125
2018-09-14T07:36:34.606Z,125
2018-09-14T07:37:43.149Z,125
2018-09-14T07:38:51.803Z,125
2018-09-14T07:40:00.436Z,125
2018-09-14T07:41:09.086Z,125
2018-09-14T07:42:17.733Z,125
2018-09-14T07:43:26.379Z,130
2018-09-14T07:44:35.271Z,130
2018-09-14T07:45:43.922Z,130
2018-09-14T07:46:52.572Z,130
2018-09-14T07:48:01.217Z,130
2018-09-14T07:49:09.861Z,130
2018-09-14T07:50:18.490Z,130
2018-09-14T07:51:27.135Z,130
2018-09-14T07:52:35.778Z,130
2018-09-14T07:53:44.425Z,130
2018-09-14T07:54:53.328Z,130
2018-09-14T07:56:01.969Z,130
2018-09-14T07:57:10.611Z,130
2018-09-14T07:58:19.257Z,130
2018-09-14T07:59:27.890Z,130
2018-09-14T08:00:36.799Z,130
2018-09-14T08:01:45.439Z,130
2018-09-14T08:02:54.085Z,130
2018-09-14T08:04:02.726Z,130
2018-09-14T08:05:11.372Z,130
2018-09-14T08:06:20.011Z,130
2018-09-14T08:07:28.650Z,130
2018-09-14T08:08:37.299Z,130
2018-09-14T08:09:45.943Z,130
2018-09-14T08:10:54.586Z,135
2018-09-14T08:12:03.295Z,135
2018-09-14T08:13:12.232Z,135
2018-09-14T08:14:20.816Z,135
2018-09-14T08:15:29.457Z,135
2018-09-14T08:16:38.095Z,135
2018-09-14T08:17:46.745Z,135
2018-09-14T08:18:55.387Z,140
2018-09-14T08:20:04.380Z,140
2018-09-14T08:21:13.031Z,140
2018-09-14T08:22:21.954Z,135
2018-09-14T08:23:30.597Z,140
2018-09-14T08:24:39.243Z,140
2018-09-14T08:25:48.150Z,140
2018-09-14T08:26:56.860Z,140
2018-09-14T08:28:05.696Z,140
2018-09-14T08:29:14.338Z,145
2018-09-14T08:30:22.985Z,140
2018-09-14T08:31:32.155Z,140
2018-09-14T08:32:40.797Z,140
2018-09-14T08:33:49.442Z,140
2018-09-14T08:34:58.090Z,140
2018-09-14T08:36:06.732Z,140
2018-09-14T08:37:15.380Z,140
2018-09-14T08:38:24.020Z,140
2018-09-14T08:39:32.667Z,140
2018-09-14T08:40:41.310Z,145
2018-09-14T08:41:49.955Z,145
2018-09-14T08:42:58.599Z,145
2018-09-14T08:44:07.243Z,145
2018-09-14T08:45:15.887Z,145
2018-09-14T08:46:24.532Z,150
2018-09-14T08:47:33.179Z,145
2018-09-14T08:48:41.818Z,150
2018-09-14T08:49:50.461Z,150
2018-09-14T08:50:59.110Z,150
2018-09-14T08:52:07.749Z,150
2018-09-14T08:53:16.401Z,150
2018-09-14T08:54:25.035Z,150
2018-09-14T08:55:33.681Z,155
2018-09-14T08:56:42.320Z,155
2018-09-14T08:57:50.973Z,155
2018-09-14T08:58:59.612Z,155
2018-09-14T09:00:08.252Z,155
2018-09-14T09:01:17.174Z,155
2018-09-14T09:02:26.076Z,155
2018-09-14T09:03:34.728Z,155
2018-09-14T09:04:43.368Z,155
2018-09-14T09:05:52.018Z,155
2018-09-14T09:07:00.668Z,155
2018-09-14T09:08:09.310Z,155
2018-09-14T09:09:18.516Z,155
2018-09-14T09:10:27.059Z,155
2018-09-14T09:11:35.689Z,155
2018-09-14T09:12:44.610Z,155
2018-09-14T09:13:53.250Z,150
2018-09-14T09:15:01.898Z,150
2018-09-14T09:16:11.068Z,150
2018-09-14T09:17:19.719Z,150
2018-09-14T09:18:28.364Z,150
2018-09-14T09:19:37.395Z,150
2018-09-14T09:20:46.039Z,150
2018-09-14T09:21:54.676Z,150
2018-09-14T09:23:03.337Z,150
2018-09-14T09:24:12.240Z,155
2018-09-14T09:25:20.896Z,155
2018-09-14T09:26:29.622Z,155
2018-09-14T09:27:38.182Z,155
2018-09-14T09:28:46.821Z,155
2018-09-14T09:29:55.475Z,155
2018-09-14T09:31:04.365Z,155
2018-09-14T09:32:13.017Z,155
2018-09-14T09:33:21.661Z,155
2018-09-14T09:34:30.313Z,155
2018-09-14T09:35:38.959Z,155
2018-09-14T09:36:47.863Z,155
2018-09-14T09:37:56.769Z,155
2018-09-14T09:39:05.413Z,155
2018-09-14T09:40:14.068Z,155
2018-09-14T09:41:22.708Z,155
2018-09-14T09:42:31.625Z,155
2018-09-14T09:43:40.797Z,160
2018-09-14T09:44:49.430Z,155
2018-09-14T09:45:58.138Z,155
2018-09-14T09:47:06.726Z,155
2018-09-14T09:48:15.364Z,155
2018-09-14T09:49:24.014Z,155
2018-09-14T09:50:32.655Z,155
2018-09-14T09:51:41.303Z,155
2018-09-14T09:52:49.944Z,160
2018-09-14T09:53:58.589Z,155
2018-09-14T09:55:07.233Z,160
2018-09-14T09:56:15.883Z,160
2018-09-14T09:57:24.531Z,160
2018-09-14T09:58:33.176Z,160
2018-09-14T09:59:41.821Z,160
2018-09-14T10:00:50.467Z,165
2018-09-14T10:01:59.117Z,160
2018-09-14T10:03:07.759Z,160
2018-09-14T10:04:16.667Z,165
2018-09-14T10:05:25.315Z,120
2018-09-14T10:06:33.964Z,160
2018-09-14T10:07:42.605Z,160
2018-09-14T10:08:51.257Z,165
2018-09-14T10:09:59.899Z,170
2018-09-14T10:11:08.549Z,170
2018-09-14T10:12:17.777Z,180
2018-09-14T10:13:26.811Z,190
2018-09-14T10:14:35.597Z,205
2018-09-14T10:15:44.582Z,205
2018-09-14T10:16:53.525Z,205
2018-09-14T10:18:02.184Z,210
2018-09-14T10:19:10.819Z,215
2018-09-14T10:20:19.459Z,220
2018-09-14T10:21:28.191Z,280
2018-09-14T10:22:36.767Z,295
2018-09-14T10:23:45.725Z,290
2018-09-14T10:24:54.364Z,270
2018-09-14T10:26:03.279Z,230
2018-09-14T10:27:12.184Z,215
2018-09-14T10:28:21.108Z,220
2018-09-14T10:29:30.017Z,220
2018-09-14T10:30:38.662Z,175
2018-09-14T10:31:47.308Z,160
2018-09-14T10:32:55.957Z,215
2018-09-14T10:34:04.607Z,225
2018-09-14T10:35:13.344Z,210
2018-09-14T10:36:21.895Z,205
2018-09-14T10:37:30.537Z,245
2018-09-14T10:38:39.189Z,190
2018-09-14T10:39:48.116Z,195
2018-09-14T10:40:57.196Z,265
2018-09-14T10:42:06.106Z,210
2018-09-14T10:43:14.756Z,195
2018-09-14T10:44:23.401Z,190
2018-09-14T10:45:32.046Z,180
2018-09-14T10:46:40.693Z,175
2018-09-14T10:47:49.336Z,175
2018-09-14T10:48:58.112Z,180
2018-09-14T10:50:06.680Z,170
2018-09-14T10:51:15.289Z,180
2018-09-14T10:52:24.233Z,190
2018-09-14T10:53:33.106Z,200
2018-09-14T10:54:41.824Z,205
2018-09-14T10:55:50.664Z,205
2018-09-14T10:56:59.316Z,200
2018-09-14T10:58:07.958Z,190
2018-09-14T10:59:16.607Z,245
2018-09-14T11:00:25.252Z,245
2018-09-14T11:01:34.170Z,250
2018-09-14T11:02:42.818Z,260
2018-09-14T11:03:51.732Z,265
2018-09-14T11:05:00.640Z,250
2018-09-14T11:06:09.291Z,220
2018-09-14T11:07:17.935Z,235
2018-09-14T11:08:26.580Z,250
2018-09-14T11:09:35.224Z,220
2018-09-14T11:10:43.872Z,280
2018-09-14T11:11:52.790Z,285
2018-09-14T11:13:01.562Z,225
2018-09-14T11:14:10.348Z,225
2018-09-14T11:15:18.991Z,225
2018-09-14T11:16:27.645Z,225
2018-09-14T11:17:36.552Z,270
2018-09-14T11:18:45.685Z,270
2018-09-14T11:19:54.205Z,220
2018-09-14T11:21:03.123Z,205
2018-09-14T11:22:11.774Z,270
2018-09-14T11:23:20.420Z,235
2018-09-14T11:24:29.083Z,245
2018-09-14T11:25:37.710Z,240
2018-09-14T11:26:46.356Z,170
2018-09-14T11:27:55.023Z,165
2018-09-14T11:29:03.654Z,150
2018-09-14T11:30:12.301Z,140
2018-09-14T11:31:21.379Z,135
2018-09-14T11:32:30.064Z,135
2018-09-14T11:33:38.951Z,135
2018-09-14T11:34:47.592Z,205
2018-09-14T11:35:56.238Z,205
2018-09-14T11:37:04.892Z,150
2018-09-14T11:38:13.936Z,205
2018-09-14T11:39:22.498Z,190
2018-09-14T11:40:31.150Z,210
2018-09-14T11:41:39.794Z,205
2018-09-14T11:42:48.447Z,200
2018-09-14T11:43:57.361Z,200
2018-09-14T11:45:06.014Z,205
2018-09-14T11:46:14.655Z,210
2018-09-14T11:47:23.304Z,200
2018-09-14T11:48:31.959Z,195
2018-09-14T11:49:40.603Z,195
2018-09-14T11:50:49.258Z,195
2018-09-14T11:51:57.898Z,195
2018-09-14T11:53:06.553Z,160
2018-09-14T11:54:15.247Z,195
2018-09-14T11:55:23.846Z,125
2018-09-14T11:56:32.486Z,120
2018-09-14T11:57:41.433Z,130
2018-09-14T11:58:50.081Z,140
2018-09-14T11:59:58.988Z,125
2018-09-14T12:01:07.627Z,125
2018-09-14T12:02:16.271Z,175
2018-09-14T12:03:24.929Z,125
2018-09-14T12:04:33.580Z,190
2018-09-14T12:05:42.227Z,185
2018-09-14T12:06:51.128Z,125
2018-09-14T12:07:59.779Z,180
2018-09-14T12:09:08.690Z,125
2018-09-14T12:10:17.873Z,125
2018-09-14T12:11:26.508Z,190
2018-09-14T12:12:35.161Z,190
2018-09-14T12:13:44.257Z,190
2018-09-14T12:14:53.139Z,120
2018-09-14T12:16:01.781Z,125
2018-09-14T12:17:10.428Z,120
2018-09-14T12:18:19.072Z,140
2018-09-14T12:19:27.728Z,180
2018-09-14T12:20:36.372Z,185
2018-09-14T12:21:45.014Z,190
2018-09-14T12:22:53.660Z,190
2018-09-14T12:24:02.567Z,190
2018-09-14T12:25:11.483Z,185
2018-09-14T12:26:20.126Z,180
2018-09-14T12:27:28.783Z,180
2018-09-14T12:28:37.685Z,180
2018-09-14T12:29:46.342Z,185
2018-09-14T12:30:55.251Z,185
2018-09-14T12:32:03.904Z,185
2018-09-14T12:33:12.541Z,195
2018-09-14T12:34:21.199Z,180
2018-09-14T12:35:30.169Z,145
2018-09-14T12:36:38.761Z,215
2018-09-14T12:37:47.401Z,235
2018-09-14T12:38:56.052Z,235
2018-09-14T12:40:04.983Z,240
2018-09-14T12:41:13.632Z,250
2018-09-14T12:42:22.281Z,255
2018-09-14T12:43:30.920Z,255
2018-09-14T12:44:39.574Z,250
2018-09-14T12:45:48.255Z,240
2018-09-14T12:46:56.927Z,235
2018-09-14T12:48:05.571Z,230
2018-09-14T12:49:14.221Z,225
2018-09-14T12:50:23.394Z,225
2018-09-14T12:51:32.047Z,220
2018-09-14T12:52:40.956Z,225
2018-09-14T12:53:50.130Z,195
2018-09-14T12:54:58.775Z,165
2018-09-14T12:56:07.448Z,185
2018-09-14T12:57:16.077Z,170
2018-09-14T12:58:24.986Z,160
2018-09-14T12:59:33.632Z,150
2018-09-14T13:00:42.278Z,140
2018-09-14T13:01:50.931Z,145
2018-09-14T13:02:59.580Z,140
2018-09-14T13:04:08.272Z,135
2018-09-14T13:05:16.873Z,150
2018-09-14T13:06:25.527Z,175
2018-09-14T13:07:34.435Z,190
2018-09-14T13:08:43.082Z,205
2018-09-14T13:09:52.008Z,210
2018-09-14T13:11:00.658Z,210
2018-09-14T13:12:09.567Z,210
2018-09-14T13:13:18.215Z,205
2018-09-14T13:14:26.904Z,175
2018-09-14T13:15:35.825Z,185
2018-09-14T13:16:44.467Z,170
2018-09-14T13:17:53.133Z,130
2018-09-14T13:19:01.792Z,125
2018-09-14T13:20:10.436Z,170
2018-09-14T13:21:19.082Z,170
2018-09-14T13:22:27.734Z,175
2018-09-14T13:23:36.388Z,175
2018-09-14T13:24:45.036Z,175
2018-09-14T13:25:53.949Z,175
2018-09-14T13:27:02.597Z,175
2018-09-14T13:28:11.632Z,170
2018-09-14T13:29:20.273Z,170
2018-09-14T13:30:28.933Z,170
2018-09-14T13:31:37.577Z,170
2018-09-14T13:32:46.229Z,170
2018-09-14T13:33:54.924Z,165
2018-09-14T13:35:03.522Z,170
2018-09-14T13:36:12.167Z,175
2018-09-14T13:37:20.814Z,175
2018-09-14T13:38:29.461Z,175
2018-09-14T13:39:38.111Z,180
2018-09-14T13:40:46.765Z,175
2018-09-14T13:41:55.404Z,165
2018-09-14T13:43:04.327Z,130
2018-09-14T13:44:12.973Z,125
2018-09-14T13:45:21.634Z,140
2018-09-14T13:46:30.272Z,160
2018-09-14T13:47:38.930Z,165
2018-09-14T13:48:47.573Z,165
2018-09-14T13:49:56.228Z,165
2018-09-14T13:51:04.866Z,160
2018-09-14T13:52:13.517Z,160
2018-09-14T13:53:22.436Z,155
2018-09-14T13:54:31.357Z,155
2018-09-14T13:55:40.006Z,150
2018-09-14T13:56:48.640Z,150
2018-09-14T13:57:57.294Z,150
2018-09-14T13:59:05.936Z,150
2018-09-14T14:00:14.593Z,145
2018-09-14T14:01:23.299Z,145
2018-09-14T14:02:31.885Z,145
2018-09-14T14:03:40.528Z,145
2018-09-14T14:04:49.184Z,150
2018-09-14T14:05:57.846Z,150
2018-09-14T14:07:06.803Z,145
2018-09-14T14:08:15.648Z,145
2018-09-14T14:09:24.307Z,140
2018-09-14T14:10:32.951Z,140
2018-09-14T14:11:41.864Z,140
2018-09-14T14:12:50.508Z,140
2018-09-14T14:13:59.153Z,140
2018-09-14T14:15:07.809Z,140
2018-09-14T14:16:16.715Z,145
2018-09-14T14:17:25.472Z,135
2018-09-14T14:18:34.275Z,135
2018-09-14T14:19:42.931Z,135
2018-09-14T14:20:51.575Z,135
2018-09-14T14:22:00.229Z,135
2018-09-14T14:23:09.156Z,135
2018-09-14T14:24:17.790Z,110
2018-09-14T14:25:26.436Z,135
2018-09-14T14:26:35.089Z,135
2018-09-14T14:27:43.727Z,135
2018-09-14T14:28:52.379Z,130
2018-09-14T14:30:01.030Z,130
2018-09-14T14:31:09.678Z,130
2018-09-14T14:32:18.851Z,135
2018-09-14T14:33:27.492Z,140
2018-09-14T14:34:36.144Z,145
2018-09-14T14:35:44.787Z,145
2018-09-14T14:36:53.444Z,130
2018-09-14T14:38:02.081Z,140
2018-09-14T14:39:10.736Z,110
2018-09-14T14:40:19.380Z,110
2018-09-14T14:41:29.081Z,105
2018-09-14T14:42:37.973Z,125
2018-09-14T14:43:46.619Z,125
2018-09-14T14:44:55.268Z,125
2018-09-14T14:46:04.452Z,130
2018-09-14T14:47:13.104Z,130
2018-09-14T14:48:21.750Z,130
2018-09-14T14:49:30.745Z,130
2018-09-14T14:50:39.653Z,130
2018-09-14T14:51:48.279Z,120
2018-09-14T14:52:56.931Z,125
2018-09-14T14:54:05.573Z,130
2018-09-14T14:55:14.230Z,135
2018-09-14T14:56:22.866Z,135
2018-09-14T14:57:31.816Z,130
2018-09-14T14:58:40.440Z,125
2018-09-14T14:59:49.142Z,130
2018-09-14T15:00:57.734Z,125
2018-09-14T15:02:06.654Z,120
2018-09-14T15:03:15.300Z,120
2018-09-14T15:04:23.956Z,115
2018-09-14T15:05:32.607Z,115
2018-09-14T15:06:41.532Z,120
2018-09-14T15:07:50.443Z,120
2018-09-14T15:08:59.354Z,120
2018-09-14T15:10:08.010Z,120
2018-09-14T15:11:16.654Z,115
2018-09-14T15:12:25.311Z,115
2018-09-14T15:13:34.029Z,115
2018-09-14T15:14:42.951Z,115
2018-09-14T15:15:51.596Z,115
2018-09-14T15:17:00.245Z,115
2018-09-14T15:18:09.145Z,110
2018-09-14T15:19:17.843Z,110
2018-09-14T15:20:26.752Z,110
2018-09-14T15:21:35.407Z,105
2018-09-14T15:22:44.044Z,100
2018-09-14T15:23:52.694Z,105
2018-09-14T15:25:02.015Z,100
2018-09-14T15:26:11.188Z,95
2018-09-14T15:27:19.830Z,95
2018-09-14T15:28:28.736Z,105
2018-09-14T15:29:37.657Z,105
2018-09-14T15:30:46.302Z,100
2018-09-14T15:31:55.227Z,95
2018-09-14T15:33:04.126Z,100
2018-09-14T15:34:12.782Z,105
2018-09-14T15:35:21.429Z,110
2018-09-14T15:36:30.087Z,115
2018-09-14T15:37:38.724Z,110
2018-09-14T15:38:47.684Z,105
2018-09-14T15:39:56.332Z,100
2018-09-14T15:41:05.032Z,100
2018-09-14T15:42:13.627Z,95
2018-09-14T15:43:22.275Z,95
2018-09-14T15:44:30.916Z,95
2018-09-14T15:45:39.841Z,100
2018-09-14T15:46:48.498Z,105
2018-09-14T15:47:57.144Z,105
2018-09-14T15:49:05.860Z,100
2018-09-14T15:50:14.431Z,90
2018-09-14T15:51:23.084Z,85
2018-09-14T15:52:31.731Z,80
2018-09-14T15:53:40.915Z,80
2018-09-14T15:54:49.558Z,75
2018-09-14T15:55:58.211Z,80
2018-09-14T15:57:06.859Z,75
2018-09-14T15:58:15.512Z,75
2018-09-14T15:59:24.157Z,75
2018-09-14T16:00:32.806Z,75
2018-09-14T16:01:41.456Z,70
2018-09-14T16:02:50.108Z,70
2018-09-14T16:03:58.758Z,70
2018-09-14T16:05:07.397Z,70
2018-09-14T16:06:16.043Z,70
2018-09-14T16:07:24.960Z,65
2018-09-14T16:08:33.612Z,65
2018-09-14T16:09:42.524Z,65
2018-09-14T16:10:51.172Z,65
2018-09-14T16:11:59.819Z,70